Sioux Arrow — WAG6168 — position and weather

sailwx.info

Track history (hours):
 
Tides and Currents Weather Stations Pressure Air Temp Water Temp Dewpoint Dewpoint Depression Visibility Wind Speed Wind Dir Waves Ship Positions

Sioux Arrow

Owner: HARMON, JACK L, PORT ANGELES, WA. More information available from US FCC via Universal Licensing System and Coast Guard Vessel Documentation Center.

Last reported at 2016-Feb-08 22:33 UTC. Time now 2016-Feb-09 01:18 UTC.
Position N 48°31' W 122°36'.

Type: Port tender. MMSI: 366973370.

Date/timePositionNaut miles runAvg speedWind from/ knotsBaromVisibWave heightAir tempDewpointWater temp
2016-Feb-08 22:33N 48°31' W 122°36'1 1.4
2016-Feb-08 21:33N 48°31' W 122°35'0 0.5
2016-Feb-08 20:34N 48°31' W 122°35'1 0.6
2016-Feb-08 19:33N 48°31' W 122°36'5 4.7
2016-Feb-08 18:33N 48°35' W 122°34'5 5.0
2016-Feb-08 17:33N 48°31' W 122°36'2 1.6
2016-Feb-08 16:33N 48°31' W 122°34'2 1.5
2016-Feb-08 15:33N 48°31' W 122°36'0 0.0
2016-Feb-08 12:33N 48°31' W 122°36'3 2.7
2016-Feb-08 11:31N 48°33' W 122°34'3 2.8
2016-Feb-08 10:33N 48°31' W 122°36'0 0.0
2016-Feb-08 09:33N 48°31' W 122°36'0 0.0
2016-Feb-08 08:33N 48°31' W 122°36'0 0.0
2016-Feb-08 07:33N 48°31' W 122°36'0 0.0
2016-Feb-08 06:33N 48°31' W 122°36'0 0.0
2016-Feb-08 05:33N 48°31' W 122°36'0 0.0
2016-Feb-08 04:33N 48°31' W 122°36'0 0.1
2016-Feb-08 03:33N 48°31' W 122°36'0 0.1
2016-Feb-08 02:33N 48°31' W 122°36'0 0.0
2016-Feb-08 01:33N 48°31' W 122°36'1 1.0
2016-Feb-08 00:34N 48°31' W 122°35'1 0.6
2016-Feb-07 23:33N 48°31' W 122°36'0 0.3
2016-Feb-07 22:33N 48°31' W 122°36'0 0.0
2016-Feb-07 21:33N 48°31' W 122°36'1 0.9
2016-Feb-07 20:33N 48°31' W 122°35'1 0.9
2016-Feb-07 19:33N 48°31' W 122°36'0 0.0
2016-Feb-07 18:33N 48°31' W 122°36'0 0.0
2016-Feb-07 17:33N 48°31' W 122°36'1 1.4
2016-Feb-07 16:33N 48°31' W 122°34'1 1.4
2016-Feb-07 15:31N 48°31' W 122°36'0 0.0
2016-Feb-07 09:09N 48°31' W 122°36'2 2.6
2016-Feb-07 08:34N 48°31' W 122°34'2 1.5
2016-Feb-07 07:34N 48°31' W 122°36'0 0.0
2016-Feb-07 06:34N 48°31' W 122°36'0 0.0
2016-Feb-07 05:34N 48°31' W 122°36'0 0.0
2016-Feb-07 04:33N 48°31' W 122°36'0 0.1
2016-Feb-07 03:33N 48°31' W 122°36'0 0.1
2016-Feb-07 02:33N 48°31' W 122°36'1 1.5
2016-Feb-07 01:33N 48°31' W 122°34'1 0.6
2016-Feb-07 00:33N 48°31' W 122°35'1 0.9
2016-Feb-06 23:33N 48°31' W 122°36'0 0.0
2016-Feb-06 22:34N 48°31' W 122°36'0 0.0
2016-Feb-06 21:34N 48°31' W 122°36'1 0.5
2016-Feb-06 20:33N 48°31' W 122°36'1 0.6
2016-Feb-06 19:33N 48°31' W 122°37'2 1.7
2016-Feb-06 18:33N 48°31' W 122°34'2 1.7
2016-Feb-06 17:33N 48°31' W 122°36'0 0.0
2016-Feb-06 16:33N 48°31' W 122°36'5 5.0
2016-Feb-06 15:34N 48°35' W 122°33'5 0.3
2016-Feb-06 01:09N 48°31' W 122°36'0 0.0
2016-Feb-06 00:33N 48°31' W 122°36'0 0.0
2016-Feb-05 23:33N 48°31' W 122°36'0 0.0
2016-Feb-05 22:33N 48°31' W 122°36'2 1.5
2016-Feb-05 21:34N 48°31' W 122°34'0 0.0
2016-Feb-05 20:33N 48°31' W 122°34'1 1.1
2016-Feb-05 19:33N 48°31' W 122°36'1 1.0
2016-Feb-05 18:33N 48°31' W 122°35'1 1.4
2016-Feb-05 17:33N 48°31' W 122°36'1 0.9
2016-Feb-05 16:33N 48°31' W 122°35'1 0.9
2016-Feb-05 15:33N 48°31' W 122°36'0 0.0
2016-Feb-05 14:33N 48°31' W 122°37'0 0.0
2016-Feb-05 06:12N 48°31' W 122°36'4 6.4
2016-Feb-05 05:33N 48°34' W 122°34'4 1.4
2016-Feb-05 02:33N 48°31' W 122°37'5 5.3
2016-Feb-05 01:33N 48°35' W 122°33'5 5.3
2016-Feb-05 00:33N 48°31' W 122°37'0 0.2
2016-Feb-04 23:33N 48°31' W 122°36'0 0.2
2016-Feb-04 22:33N 48°31' W 122°37'0 0.1
2016-Feb-04 21:33N 48°31' W 122°36'0 0.0
2016-Feb-04 20:33N 48°31' W 122°36'0 0.1
2016-Feb-04 19:33N 48°31' W 122°36'0 0.1
2016-Feb-04 18:33N 48°31' W 122°36'0 0.1
2016-Feb-04 17:33N 48°31' W 122°36'0 0.0
2016-Feb-04 16:33N 48°31' W 122°36'0 0.0
2016-Feb-04 15:33N 48°31' W 122°36'0 0.0
2016-Feb-04 14:33N 48°31' W 122°36'0 0.0
2016-Feb-04 13:33N 48°31' W 122°36'0 0.0
2016-Feb-03 22:06N 48°31' W 122°36'5 9.4
2016-Feb-03 21:33N 48°35' W 122°33'5 5.1
2016-Feb-03 20:33N 48°31' W 122°36'0 0.0
2016-Feb-03 19:33N 48°31' W 122°36'0 0.0
2016-Feb-03 18:33N 48°31' W 122°36'5 5.3
2016-Feb-03 17:33N 48°35' W 122°33'5 0.3
2016-Feb-03 01:04N 48°31' W 122°36'2 4.2
2016-Feb-03 00:33N 48°32' W 122°34'1 0.7
2016-Feb-02 23:33N 48°33' W 122°34'3 2.8
2016-Feb-02 22:33N 48°31' W 122°36'0 0.0
2016-Feb-02 21:33N 48°31' W 122°36'4 3.9
2016-Feb-02 20:33N 48°34' W 122°34'3 2.5
2016-Feb-02 19:33N 48°32' W 122°34'2 1.9
2016-Feb-02 18:33N 48°31' W 122°36'0 0.0
2016-Feb-02 17:33N 48°31' W 122°36'0 0.0
2016-Feb-02 16:33N 48°31' W 122°36'3 2.8
2016-Feb-02 15:33N 48°33' W 122°34'3 0.3
2016-Feb-02 04:33N 48°31' W 122°36'0 0.0
2016-Feb-02 03:33N 48°31' W 122°36'0 0.1
2016-Feb-02 02:33N 48°31' W 122°37'2 1.6
2016-Feb-02 01:33N 48°31' W 122°34'0 0.4
2016-Feb-02 00:33N 48°31' W 122°35'1 1.2
2016-Feb-01 23:33N 48°31' W 122°36'1 0.6
2016-Feb-01 22:33N 48°31' W 122°36'4 4.0
2016-Feb-01 21:33N 48°35' W 122°34'4 4.3
2016-Feb-01 20:33N 48°31' W 122°36'4 4.2
2016-Feb-01 19:33N 48°35' W 122°34'1 1.0
2016-Feb-01 18:34N 48°36' W 122°34'1 1.0
2016-Feb-01 17:33N 48°37' W 122°34'3 3.4
2016-Feb-01 16:33N 48°33' W 122°34'3 3.0
2016-Feb-01 15:33N 48°31' W 122°36'5 4.6
2016-Feb-01 14:33N 48°35' W 122°34'5 0.7
2016-Feb-01 08:25N 48°31' W 122°36'2 2.5
2016-Feb-01 07:33N 48°32' W 122°34'4 3.6
2016-Feb-01 06:33N 48°36' W 122°34'5 5.2
2016-Feb-01 05:31N 48°31' W 122°36'0 0.0
2016-Feb-01 04:33N 48°31' W 122°36'0 0.0
2016-Feb-01 03:33N 48°31' W 122°36'0 0.0
2016-Feb-01 02:33N 48°31' W 122°36'0 0.0
2016-Feb-01 01:33N 48°31' W 122°36'0 0.0
2016-Feb-01 00:33N 48°31' W 122°36'0 0.0
2016-Jan-31 23:33N 48°31' W 122°36'0 0.0
2016-Jan-31 22:33N 48°31' W 122°36'0 0.0
2016-Jan-31 21:33N 48°31' W 122°36'0 0.0
2016-Jan-31 20:33N 48°31' W 122°36'0 0.0
2016-Jan-31 19:33N 48°31' W 122°36'0 0.0
2016-Jan-31 18:33N 48°31' W 122°36'1 1.1
2016-Jan-31 17:33N 48°31' W 122°35'1 1.0
2016-Jan-31 16:28N 48°31' W 122°36'1 0.1
2016-Jan-30 15:33N 48°31' W 122°34'1 0.7
2016-Jan-30 13:34N 48°31' W 122°36'6 6.2
2016-Jan-30 12:33N 48°37' W 122°34'6 6.1
2016-Jan-30 11:33N 48°31' W 122°36'0 0.0
2016-Jan-30 06:28N 48°31' W 122°36'0 0.0
2016-Jan-30 05:33N 48°31' W 122°36'0 0.0
2016-Jan-30 04:33N 48°31' W 122°36'0 0.0
2016-Jan-30 03:33N 48°31' W 122°36'0 0.0
2016-Jan-29 23:33N 48°31' W 122°36'  
Track history (hours):
 
Tides and Currents Weather Stations Pressure Air Temp Water Temp Dewpoint Dewpoint Depression Visibility Wind Speed Wind Dir Waves Ship Positions

Sioux Arrow

Owner: HARMON, JACK L, PORT ANGELES, WA. More information available from US FCC via Universal Licensing System and Coast Guard Vessel Documentation Center.

Last reported at 2016-Feb-08 22:33 UTC. Time now 2016-Feb-09 01:18 UTC.
Position N 48°31' W 122°36'.

Type: Port tender. MMSI: 366973370.

Date/timePositionNaut miles runAvg speedWind from/ knotsBaromVisibWave heightAir tempDewpointWater temp
2016-Feb-08 22:33N 48°31' W 122°36'1 1.4
2016-Feb-08 21:33N 48°31' W 122°35'0 0.5
2016-Feb-08 20:34N 48°31' W 122°35'1 0.6
2016-Feb-08 19:33N 48°31' W 122°36'5 4.7
2016-Feb-08 18:33N 48°35' W 122°34'5 5.0
2016-Feb-08 17:33N 48°31' W 122°36'2 1.6
2016-Feb-08 16:33N 48°31' W 122°34'2 1.5
2016-Feb-08 15:33N 48°31' W 122°36'0 0.0
2016-Feb-08 12:33N 48°31' W 122°36'3 2.7
2016-Feb-08 11:31N 48°33' W 122°34'3 2.8
2016-Feb-08 10:33N 48°31' W 122°36'0 0.0
2016-Feb-08 09:33N 48°31' W 122°36'0 0.0
2016-Feb-08 08:33N 48°31' W 122°36'0 0.0
2016-Feb-08 07:33N 48°31' W 122°36'0 0.0
2016-Feb-08 06:33N 48°31' W 122°36'0 0.0
2016-Feb-08 05:33N 48°31' W 122°36'0 0.0
2016-Feb-08 04:33N 48°31' W 122°36'0 0.1
2016-Feb-08 03:33N 48°31' W 122°36'0 0.1
2016-Feb-08 02:33N 48°31' W 122°36'0 0.0
2016-Feb-08 01:33N 48°31' W 122°36'1 1.0
2016-Feb-08 00:34N 48°31' W 122°35'1 0.6
2016-Feb-07 23:33N 48°31' W 122°36'0 0.3
2016-Feb-07 22:33N 48°31' W 122°36'0 0.0
2016-Feb-07 21:33N 48°31' W 122°36'1 0.9
2016-Feb-07 20:33N 48°31' W 122°35'1 0.9
2016-Feb-07 19:33N 48°31' W 122°36'0 0.0
2016-Feb-07 18:33N 48°31' W 122°36'0 0.0
2016-Feb-07 17:33N 48°31' W 122°36'1 1.4
2016-Feb-07 16:33N 48°31' W 122°34'1 1.4
2016-Feb-07 15:31N 48°31' W 122°36'0 0.0
2016-Feb-07 09:09N 48°31' W 122°36'2 2.6
2016-Feb-07 08:34N 48°31' W 122°34'2 1.5
2016-Feb-07 07:34N 48°31' W 122°36'0 0.0
2016-Feb-07 06:34N 48°31' W 122°36'0 0.0
2016-Feb-07 05:34N 48°31' W 122°36'0 0.0
2016-Feb-07 04:33N 48°31' W 122°36'0 0.1
2016-Feb-07 03:33N 48°31' W 122°36'0 0.1
2016-Feb-07 02:33N 48°31' W 122°36'1 1.5
2016-Feb-07 01:33N 48°31' W 122°34'1 0.6
2016-Feb-07 00:33N 48°31' W 122°35'1 0.9
2016-Feb-06 23:33N 48°31' W 122°36'0 0.0
2016-Feb-06 22:34N 48°31' W 122°36'0 0.0
2016-Feb-06 21:34N 48°31' W 122°36'1 0.5
2016-Feb-06 20:33N 48°31' W 122°36'1 0.6
2016-Feb-06 19:33N 48°31' W 122°37'2 1.7
2016-Feb-06 18:33N 48°31' W 122°34'2 1.7
2016-Feb-06 17:33N 48°31' W 122°36'0 0.0
2016-Feb-06 16:33N 48°31' W 122°36'5 5.0
2016-Feb-06 15:34N 48°35' W 122°33'5 0.3
2016-Feb-06 01:09N 48°31' W 122°36'0 0.0
2016-Feb-06 00:33N 48°31' W 122°36'0 0.0
2016-Feb-05 23:33N 48°31' W 122°36'0 0.0
2016-Feb-05 22:33N 48°31' W 122°36'2 1.5
2016-Feb-05 21:34N 48°31' W 122°34'0 0.0
2016-Feb-05 20:33N 48°31' W 122°34'1 1.1
2016-Feb-05 19:33N 48°31' W 122°36'1 1.0
2016-Feb-05 18:33N 48°31' W 122°35'1 1.4
2016-Feb-05 17:33N 48°31' W 122°36'1 0.9
2016-Feb-05 16:33N 48°31' W 122°35'1 0.9
2016-Feb-05 15:33N 48°31' W 122°36'0 0.0
2016-Feb-05 14:33N 48°31' W 122°37'0 0.0
2016-Feb-05 06:12N 48°31' W 122°36'4 6.4
2016-Feb-05 05:33N 48°34' W 122°34'4 1.4
2016-Feb-05 02:33N 48°31' W 122°37'5 5.3
2016-Feb-05 01:33N 48°35' W 122°33'5 5.3
2016-Feb-05 00:33N 48°31' W 122°37'0 0.2
2016-Feb-04 23:33N 48°31' W 122°36'0 0.2
2016-Feb-04 22:33N 48°31' W 122°37'0 0.1
2016-Feb-04 21:33N 48°31' W 122°36'0 0.0
2016-Feb-04 20:33N 48°31' W 122°36'0 0.1
2016-Feb-04 19:33N 48°31' W 122°36'0 0.1
2016-Feb-04 18:33N 48°31' W 122°36'0 0.1
2016-Feb-04 17:33N 48°31' W 122°36'0 0.0
2016-Feb-04 16:33N 48°31' W 122°36'0 0.0
2016-Feb-04 15:33N 48°31' W 122°36'0 0.0
2016-Feb-04 14:33N 48°31' W 122°36'0 0.0
2016-Feb-04 13:33N 48°31' W 122°36'0 0.0
2016-Feb-03 22:06N 48°31' W 122°36'5 9.4
2016-Feb-03 21:33N 48°35' W 122°33'5 5.1
2016-Feb-03 20:33N 48°31' W 122°36'0 0.0
2016-Feb-03 19:33N 48°31' W 122°36'0 0.0
2016-Feb-03 18:33N 48°31' W 122°36'5 5.3
2016-Feb-03 17:33N 48°35' W 122°33'5 0.3
2016-Feb-03 01:04N 48°31' W 122°36'2 4.2
2016-Feb-03 00:33N 48°32' W 122°34'1 0.7
2016-Feb-02 23:33N 48°33' W 122°34'3 2.8
2016-Feb-02 22:33N 48°31' W 122°36'0 0.0
2016-Feb-02 21:33N 48°31' W 122°36'4 3.9
2016-Feb-02 20:33N 48°34' W 122°34'3 2.5
2016-Feb-02 19:33N 48°32' W 122°34'2 1.9
2016-Feb-02 18:33N 48°31' W 122°36'0 0.0
2016-Feb-02 17:33N 48°31' W 122°36'0 0.0
2016-Feb-02 16:33N 48°31' W 122°36'3 2.8
2016-Feb-02 15:33N 48°33' W 122°34'3 0.3
2016-Feb-02 04:33N 48°31' W 122°36'0 0.0
2016-Feb-02 03:33N 48°31' W 122°36'0 0.1
2016-Feb-02 02:33N 48°31' W 122°37'2 1.6
2016-Feb-02 01:33N 48°31' W 122°34'0 0.4
2016-Feb-02 00:33N 48°31' W 122°35'1 1.2
2016-Feb-01 23:33N 48°31' W 122°36'1 0.6
2016-Feb-01 22:33N 48°31' W 122°36'4 4.0
2016-Feb-01 21:33N 48°35' W 122°34'4 4.3
2016-Feb-01 20:33N 48°31' W 122°36'4 4.2
2016-Feb-01 19:33N 48°35' W 122°34'1 1.0
2016-Feb-01 18:34N 48°36' W 122°34'1 1.0
2016-Feb-01 17:33N 48°37' W 122°34'3 3.4
2016-Feb-01 16:33N 48°33' W 122°34'3 3.0
2016-Feb-01 15:33N 48°31' W 122°36'5 4.6
2016-Feb-01 14:33N 48°35' W 122°34'5 0.7
2016-Feb-01 08:25N 48°31' W 122°36'2 2.5
2016-Feb-01 07:33N 48°32' W 122°34'4 3.6
2016-Feb-01 06:33N 48°36' W 122°34'5 5.2
2016-Feb-01 05:31N 48°31' W 122°36'0 0.0
2016-Feb-01 04:33N 48°31' W 122°36'0 0.0
2016-Feb-01 03:33N 48°31' W 122°36'0 0.0
2016-Feb-01 02:33N 48°31' W 122°36'0 0.0
2016-Feb-01 01:33N 48°31' W 122°36'0 0.0
2016-Feb-01 00:33N 48°31' W 122°36'0 0.0
2016-Jan-31 23:33N 48°31' W 122°36'0 0.0
2016-Jan-31 22:33N 48°31' W 122°36'0 0.0
2016-Jan-31 21:33N 48°31' W 122°36'0 0.0
2016-Jan-31 20:33N 48°31' W 122°36'0 0.0
2016-Jan-31 19:33N 48°31' W 122°36'0 0.0
2016-Jan-31 18:33N 48°31' W 122°36'1 1.1
2016-Jan-31 17:33N 48°31' W 122°35'1 1.0
2016-Jan-31 16:28N 48°31' W 122°36'1 0.1
2016-Jan-30 15:33N 48°31' W 122°34'1 0.7
2016-Jan-30 13:34N 48°31' W 122°36'6 6.2
2016-Jan-30 12:33N 48°37' W 122°34'6 6.1
2016-Jan-30 11:33N 48°31' W 122°36'0 0.0
2016-Jan-30 06:28N 48°31' W 122°36'0 0.0
2016-Jan-30 05:33N 48°31' W 122°36'0 0.0
2016-Jan-30 04:33N 48°31' W 122°36'0 0.0
2016-Jan-30 03:33N 48°31' W 122°36'0 0.0
2016-Jan-29 23:33N 48°31' W 122°36'  

Dump ship's entire track history